To NAV CANADA Home Page Login to a new session Search on AWWS site Disclaimer Vers la page française équivalente Tips FAQ What's new on the site To the Forecasts and Observations / NOTAM section To "File a Flight Plan" website Publications and other links Update of the User's profile FIC Telephone Numbers My Weather Data Folder Route Weather Data Regional Weather Data Local Weather Data To the Forecasts and Observations / NOTAM section
Request Generated 07/10/2020 at 12:05:11 UTC . Weather information available at that time is displayed.

METAR/TAF

If you find any discrepancies between the coded METAR/TAF and the plain language METAR/TAF please use the coded METAR/TAF. LWIS bulletins are not decoded in plain language.

LONDON/ON    

METAR CYXU 101200Z 15008KT 15SM FEW250 25/22 A2986 RMK CI1 SLP106 DENSITY ALT 2 0FT=
METAR
LOCATION
CYXU - LONDON/ON
DATE - TIME
10 JULY 2020 - 1200 UTC
WIND
150 TRUE @ 8  KNOTS
VISIBILITY
15 STAT.  MILES
RUNWAY VISUAL RANGE
WEATHER
CLOUDINESS
FEW CLOUDS (1/8 - 2/8) 25000  FT
TEMP / DEWPOINT
25 C / 22 C
ALTIMETER
29.86 IN HG
RECENT WEATHER
WIND SHEAR

METAR CYXU 101100Z 14005KT 15SM FEW250 23/21 A2986 RMK CI1 SLP106 DENSITY ALT 2 0FT=
METAR
LOCATION
CYXU - LONDON/ON
DATE - TIME
10 JULY 2020 - 1100 UTC
WIND
140 TRUE @ 5  KNOTS
VISIBILITY
15 STAT.  MILES
RUNWAY VISUAL RANGE
WEATHER
CLOUDINESS
FEW CLOUDS (1/8 - 2/8) 25000  FT
TEMP / DEWPOINT
23 C / 21 C
ALTIMETER
29.86 IN HG
RECENT WEATHER
WIND SHEAR

METAR CYXU 101000Z 10004KT 15SM FEW220 FEW250 22/21 A2986 RMK CC1CI1 CC TR SLP1 DENSITY ALT 2000FT=
METAR
LOCATION
CYXU - LONDON/ON
DATE - TIME
10 JULY 2020 - 1000 UTC
WIND
100 TRUE @ 4  KNOTS
VISIBILITY
15 STAT.  MILES
RUNWAY VISUAL RANGE
WEATHER
CLOUDINESS
FEW CLOUDS (1/8 - 2/8) 22000  FT
FEW CLOUDS (1/8 - 2/8) 25000  FT
TEMP / DEWPOINT
22 C / 21 C
ALTIMETER
29.86 IN HG
RECENT WEATHER
WIND SHEAR

TAF CYXU 101139Z 1012/1112 VRB03KT P6SM SKC FM101600 17012KT P6SM BKN050 FM102000 18010KT P6SM -SHRA BKN050 PROB30 1020/1023 2SM TSRA BR BKN040CB FM110200 18005KT 3SM -RA BR BKN008 OVC030 PROB30 1103/1106 3/4SM +SHRA BR OVC002 FM110600 VRB03KT 1SM -RA -DZ BR OVC002 RMK NXT FCST BY 101800Z=
TAF
LOCATION

CYXU - LONDON/ON
VALIDITY [UTC]
10 JUL - 1139 to
11 JUL - 1200
 
TIMES
[UTC]
WIND
[DEGREES TRUE]
VISIBILITY
[STAT. MILES]
WEATHER
CLOUDINESS
[FEET AGL]
 
10 JUL - 1200 to
10 JUL - 1600
VARIABLE @ 3 KNOTS
6+
NIL
CLEAR SKY
 
10 JUL - 1600 to
10 JUL - 2000
170 @ 12 KNOTS
6+
NIL
5000 BROKEN
 
10 JUL - 2000 to
11 JUL - 0200
180 @ 10 KNOTS
6+
LIGHT RAIN SHOWER
5000 BROKEN
30% PROBABILITY
10 JUL - 2000 to
10 JUL - 2300
 
2
MODERATE THUNDERSTORM WITH RAIN
MIST
4000 BROKEN WITH CUMULONIMBUS
 
11 JUL - 0200 to
11 JUL - 0600
180 @ 5 KNOTS
3
LIGHT RAIN
MIST
800 BROKEN
3000 OVERCAST
30% PROBABILITY
11 JUL - 0300 to
11 JUL - 0600
 
3/4
HEAVY RAIN SHOWER
MIST
200 OVERCAST
 
11 JUL - 0600 to
11 JUL - 1200
VARIABLE @ 3 KNOTS
1
LIGHT RAIN
LIGHT DRIZZLE
MIST
200 OVERCAST
REMARKS
THE NEXT FORECAST WILL BE ISSUED BY 1800 UTC ON DAY 10


Your time UTC time
Weather data provided by Environment Canada and NAV CANADA